sensor_id;sensor_type;location;lat;lon;timestamp;P1;durP1;ratioP1;P2;durP2;ratioP2
57339;SDS011;43174;50.930;18.170;2023-06-14T00:02:16;7.40;;;7.00;;
57339;SDS011;43174;50.930;18.170;2023-06-14T00:12:00;7.10;;;6.70;;
57339;SDS011;43174;50.930;18.170;2023-06-14T00:21:45;7.50;;;7.00;;
57339;SDS011;43174;50.930;18.170;2023-06-14T00:31:27;9.40;;;8.70;;
57339;SDS011;43174;50.930;18.170;2023-06-14T00:41:09;11.20;;;8.80;;
57339;SDS011;43174;50.930;18.170;2023-06-14T00:50:52;8.30;;;7.70;;
57339;SDS011;43174;50.930;18.170;2023-06-14T01:00:34;9.20;;;8.80;;
57339;SDS011;43174;50.930;18.170;2023-06-14T01:10:34;8.60;;;8.20;;
57339;SDS011;43174;50.930;18.170;2023-06-14T01:20:19;12.80;;;7.00;;
57339;SDS011;43174;50.930;18.170;2023-06-14T01:30:03;6.50;;;6.20;;
57339;SDS011;43174;50.930;18.170;2023-06-14T01:39:47;7.90;;;7.30;;
57339;SDS011;43174;50.930;18.170;2023-06-14T01:49:33;9.00;;;8.50;;
57339;SDS011;43174;50.930;18.170;2023-06-14T01:59:16;7.50;;;7.10;;
57339;SDS011;43174;50.930;18.170;2023-06-14T02:09:00;9.50;;;8.90;;
57339;SDS011;43174;50.930;18.170;2023-06-14T02:18:43;7.90;;;7.50;;
57339;SDS011;43174;50.930;18.170;2023-06-14T02:28:26;5.90;;;5.50;;
57339;SDS011;43174;50.930;18.170;2023-06-14T02:38:08;7.90;;;7.50;;
57339;SDS011;43174;50.930;18.170;2023-06-14T02:47:51;7.20;;;6.80;;
57339;SDS011;43174;50.930;18.170;2023-06-14T02:57:35;7.50;;;7.00;;
57339;SDS011;43174;50.930;18.170;2023-06-14T03:07:17;8.00;;;7.60;;
57339;SDS011;43174;50.930;18.170;2023-06-14T03:17:04;8.80;;;8.40;;
57339;SDS011;43174;50.930;18.170;2023-06-14T03:26:48;6.90;;;6.50;;
57339;SDS011;43174;50.930;18.170;2023-06-14T03:36:30;9.20;;;8.60;;
57339;SDS011;43174;50.930;18.170;2023-06-14T03:46:12;9.60;;;9.00;;
57339;SDS011;43174;50.930;18.170;2023-06-14T03:55:55;7.10;;;6.70;;
57339;SDS011;43174;50.930;18.170;2023-06-14T04:05:38;8.20;;;7.80;;
57339;SDS011;43174;50.930;18.170;2023-06-14T04:15:25;8.80;;;8.20;;
57339;SDS011;43174;50.930;18.170;2023-06-14T04:25:08;11.40;;;10.70;;
57339;SDS011;43174;50.930;18.170;2023-06-14T04:35:07;11.20;;;10.30;;
57339;SDS011;43174;50.930;18.170;2023-06-14T04:44:56;10.20;;;9.60;;
57339;SDS011;43174;50.930;18.170;2023-06-14T04:47:23;12.00;;;11.20;;
57339;SDS011;43174;50.930;18.170;2023-06-14T04:57:11;10.50;;;8.70;;
57339;SDS011;43174;50.930;18.170;2023-06-14T05:07:08;8.10;;;7.60;;
57339;SDS011;43174;50.930;18.170;2023-06-14T05:16:54;10.10;;;9.60;;
57339;SDS011;43174;50.930;18.170;2023-06-14T05:26:38;9.90;;;9.40;;
57339;SDS011;43174;50.930;18.170;2023-06-14T05:36:21;10.70;;;10.10;;
57339;SDS011;43174;50.930;18.170;2023-06-14T05:46:03;7.90;;;7.50;;
57339;SDS011;43174;50.930;18.170;2023-06-14T05:55:45;9.60;;;9.10;;
57339;SDS011;43174;50.930;18.170;2023-06-14T06:05:27;7.80;;;7.30;;
57339;SDS011;43174;50.930;18.170;2023-06-14T06:15:08;8.40;;;7.90;;
57339;SDS011;43174;50.930;18.170;2023-06-14T06:32:11;6.80;;;6.40;;
57339;SDS011;43174;50.930;18.170;2023-06-14T06:41:54;8.20;;;7.70;;
57339;SDS011;43174;50.930;18.170;2023-06-14T06:51:40;6.00;;;5.60;;
57339;SDS011;43174;50.930;18.170;2023-06-14T07:01:24;7.70;;;7.30;;
57339;SDS011;43174;50.930;18.170;2023-06-14T07:06:17;9.30;;;8.60;;
57339;SDS011;43174;50.930;18.170;2023-06-14T07:16:01;5.40;;;5.00;;
57339;SDS011;43174;50.930;18.170;2023-06-14T07:25:44;7.90;;;7.50;;
57339;SDS011;43174;50.930;18.170;2023-06-14T07:46:57;5.30;;;5.10;;
57339;SDS011;43174;50.930;18.170;2023-06-14T07:56:42;4.50;;;4.20;;
57339;SDS011;43174;50.930;18.170;2023-06-14T08:06:25;11.40;;;5.50;;
57339;SDS011;43174;50.930;18.170;2023-06-14T08:16:07;5.00;;;4.80;;
57339;SDS011;43174;50.930;18.170;2023-06-14T08:25:50;5.50;;;5.30;;
57339;SDS011;43174;50.930;18.170;2023-06-14T08:35:33;5.00;;;4.70;;
57339;SDS011;43174;50.930;18.170;2023-06-14T08:45:19;6.00;;;5.50;;
57339;SDS011;43174;50.930;18.170;2023-06-14T08:55:10;6.30;;;5.80;;
57339;SDS011;43174;50.930;18.170;2023-06-14T09:05:00;5.50;;;5.20;;
57339;SDS011;43174;50.930;18.170;2023-06-14T09:14:43;2.00;;;1.90;;
57339;SDS011;43174;50.930;18.170;2023-06-14T09:24:26;6.00;;;5.60;;
57339;SDS011;43174;50.930;18.170;2023-06-14T09:34:09;7.90;;;7.40;;
57339;SDS011;43174;50.930;18.170;2023-06-14T09:43:55;4.40;;;4.10;;
57339;SDS011;43174;50.930;18.170;2023-06-14T10:00:55;11.20;;;5.20;;
57339;SDS011;43174;50.930;18.170;2023-06-14T10:10:38;3.60;;;3.40;;
57339;SDS011;43174;50.930;18.170;2023-06-14T10:27:38;3.30;;;3.00;;
57339;SDS011;43174;50.930;18.170;2023-06-14T10:37:21;18.20;;;3.90;;
57339;SDS011;43174;50.930;18.170;2023-06-14T10:47:06;4.70;;;4.50;;
57339;SDS011;43174;50.930;18.170;2023-06-14T10:56:50;15.40;;;5.10;;
57339;SDS011;43174;50.930;18.170;2023-06-14T11:06:44;5.80;;;5.20;;
57339;SDS011;43174;50.930;18.170;2023-06-14T11:16:28;13.00;;;5.30;;
57339;SDS011;43174;50.930;18.170;2023-06-14T11:26:13;5.70;;;5.40;;
57339;SDS011;43174;50.930;18.170;2023-06-14T11:35:55;6.00;;;5.60;;
57339;SDS011;43174;50.930;18.170;2023-06-14T11:45:39;6.60;;;6.20;;
57339;SDS011;43174;50.930;18.170;2023-06-14T11:55:21;8.30;;;7.70;;
57339;SDS011;43174;50.930;18.170;2023-06-14T12:05:07;6.10;;;5.80;;
57339;SDS011;43174;50.930;18.170;2023-06-14T12:14:51;7.80;;;7.40;;
57339;SDS011;43174;50.930;18.170;2023-06-14T12:24:35;6.30;;;6.10;;
57339;SDS011;43174;50.930;18.170;2023-06-14T12:34:20;12.90;;;12.00;;
57339;SDS011;43174;50.930;18.170;2023-06-14T12:44:02;14.10;;;12.80;;
57339;SDS011;43174;50.930;18.170;2023-06-14T12:53:48;12.90;;;11.90;;
57339;SDS011;43174;50.930;18.170;2023-06-14T13:03:30;12.90;;;12.00;;
57339;SDS011;43174;50.930;18.170;2023-06-14T13:20:32;13.40;;;12.20;;
57339;SDS011;43174;50.930;18.170;2023-06-14T13:30:16;6.70;;;5.90;;
57339;SDS011;43174;50.930;18.170;2023-06-14T13:39:59;5.70;;;5.40;;
57339;SDS011;43174;50.930;18.170;2023-06-14T13:49:43;8.60;;;8.10;;
57339;SDS011;43174;50.930;18.170;2023-06-14T13:59:28;9.00;;;8.50;;
57339;SDS011;43174;50.930;18.170;2023-06-14T14:09:11;8.40;;;8.00;;
57339;SDS011;43174;50.930;18.170;2023-06-14T14:18:56;6.20;;;5.90;;
57339;SDS011;43174;50.930;18.170;2023-06-14T14:28:41;6.50;;;6.10;;
57339;SDS011;43174;50.930;18.170;2023-06-14T14:38:25;8.70;;;8.30;;
57339;SDS011;43174;50.930;18.170;2023-06-14T14:48:07;17.30;;;8.10;;
57339;SDS011;43174;50.930;18.170;2023-06-14T14:57:49;8.00;;;7.50;;
57339;SDS011;43174;50.930;18.170;2023-06-14T15:07:31;9.50;;;9.00;;
57339;SDS011;43174;50.930;18.170;2023-06-14T15:17:16;5.90;;;5.60;;
57339;SDS011;43174;50.930;18.170;2023-06-14T15:26:59;3.70;;;3.50;;
57339;SDS011;43174;50.930;18.170;2023-06-14T15:36:42;6.90;;;6.50;;
57339;SDS011;43174;50.930;18.170;2023-06-14T15:46:24;7.70;;;7.20;;
57339;SDS011;43174;50.930;18.170;2023-06-14T15:56:08;9.40;;;9.00;;
57339;SDS011;43174;50.930;18.170;2023-06-14T16:05:51;10.90;;;10.40;;
57339;SDS011;43174;50.930;18.170;2023-06-14T16:15:33;14.40;;;13.70;;
57339;SDS011;43174;50.930;18.170;2023-06-14T16:25:15;12.90;;;12.30;;
57339;SDS011;43174;50.930;18.170;2023-06-14T16:34:59;9.10;;;8.60;;
57339;SDS011;43174;50.930;18.170;2023-06-14T16:44:43;14.60;;;13.90;;
57339;SDS011;43174;50.930;18.170;2023-06-14T16:54:26;15.80;;;14.90;;
57339;SDS011;43174;50.930;18.170;2023-06-14T17:04:08;11.40;;;10.90;;
57339;SDS011;43174;50.930;18.170;2023-06-14T17:13:54;13.80;;;12.80;;
57339;SDS011;43174;50.930;18.170;2023-06-14T17:23:37;14.10;;;12.80;;
57339;SDS011;43174;50.930;18.170;2023-06-14T17:26:03;19.00;;;17.60;;
57339;SDS011;43174;50.930;18.170;2023-06-14T17:35:46;15.90;;;15.20;;
57339;SDS011;43174;50.930;18.170;2023-06-14T17:45:28;17.30;;;16.60;;
57339;SDS011;43174;50.930;18.170;2023-06-14T17:55:11;16.00;;;14.40;;
57339;SDS011;43174;50.930;18.170;2023-06-14T18:04:53;16.30;;;15.30;;
57339;SDS011;43174;50.930;18.170;2023-06-14T18:14:36;10.90;;;10.00;;
57339;SDS011;43174;50.930;18.170;2023-06-14T18:24:19;14.30;;;13.50;;
57339;SDS011;43174;50.930;18.170;2023-06-14T18:41:20;14.80;;;14.10;;
57339;SDS011;43174;50.930;18.170;2023-06-14T18:51:02;24.30;;;22.30;;
57339;SDS011;43174;50.930;18.170;2023-06-14T19:00:45;27.20;;;24.80;;
57339;SDS011;43174;50.930;18.170;2023-06-14T19:17:58;19.40;;;18.20;;
57339;SDS011;43174;50.930;18.170;2023-06-14T19:27:42;22.40;;;20.80;;
57339;SDS011;43174;50.930;18.170;2023-06-14T19:37:24;17.50;;;15.90;;
57339;SDS011;43174;50.930;18.170;2023-06-14T19:47:07;21.80;;;19.90;;
57339;SDS011;43174;50.930;18.170;2023-06-14T19:56:49;11.60;;;11.10;;
57339;SDS011;43174;50.930;18.170;2023-06-14T20:06:31;10.90;;;10.40;;
57339;SDS011;43174;50.930;18.170;2023-06-14T20:16:14;21.80;;;19.70;;
57339;SDS011;43174;50.930;18.170;2023-06-14T20:25:56;19.30;;;18.00;;
57339;SDS011;43174;50.930;18.170;2023-06-14T20:35:38;26.60;;;20.10;;
57339;SDS011;43174;50.930;18.170;2023-06-14T20:45:23;27.40;;;22.50;;
57339;SDS011;43174;50.930;18.170;2023-06-14T20:55:09;16.70;;;15.90;;
57339;SDS011;43174;50.930;18.170;2023-06-14T21:04:57;17.70;;;16.40;;
57339;SDS011;43174;50.930;18.170;2023-06-14T21:14:42;15.20;;;13.80;;
57339;SDS011;43174;50.930;18.170;2023-06-14T21:24:26;26.50;;;18.10;;
57339;SDS011;43174;50.930;18.170;2023-06-14T21:34:09;25.30;;;23.40;;
57339;SDS011;43174;50.930;18.170;2023-06-14T21:43:52;28.70;;;25.90;;
57339;SDS011;43174;50.930;18.170;2023-06-14T21:53:36;50.50;;;26.40;;
57339;SDS011;43174;50.930;18.170;2023-06-14T22:03:19;43.10;;;22.50;;
57339;SDS011;43174;50.930;18.170;2023-06-14T22:13:03;18.70;;;17.40;;
57339;SDS011;43174;50.930;18.170;2023-06-14T22:22:47;21.40;;;19.20;;
57339;SDS011;43174;50.930;18.170;2023-06-14T22:32:37;26.60;;;24.60;;
57339;SDS011;43174;50.930;18.170;2023-06-14T22:42:31;22.90;;;21.20;;
57339;SDS011;43174;50.930;18.170;2023-06-14T22:52:21;33.50;;;22.50;;
57339;SDS011;43174;50.930;18.170;2023-06-14T23:02:12;20.30;;;18.90;;
57339;SDS011;43174;50.930;18.170;2023-06-14T23:04:38;27.90;;;25.30;;
57339;SDS011;43174;50.930;18.170;2023-06-14T23:14:22;22.00;;;20.80;;
57339;SDS011;43174;50.930;18.170;2023-06-14T23:24:05;36.20;;;32.80;;
57339;SDS011;43174;50.930;18.170;2023-06-14T23:33:49;33.60;;;30.70;;
57339;SDS011;43174;50.930;18.170;2023-06-14T23:43:40;38.40;;;34.60;;
57339;SDS011;43174;50.930;18.170;2023-06-14T23:53:27;47.20;;;42.40;;
